Time;durP1;ratioP1;P1;durP2;ratioP2;P2;SDS_P1;SDS_P2;PMS_P1;PMS_P2;Temp;Humidity;BMP_temperature;BMP_pressure;BME280_temperature;BME280_humidity;BME280_pressure;Samples;Min_cycle;Max_cycle;Signal;HPM_P1;HPM_P2
2022/06/17 00:01:04;;;;;;;1.92;1.40;;;24.90;91.20;;;;;;5093341;28;20413;-53
2022/06/17 00:03:32;;;;;;;3.00;1.20;;;24.70;55.90;;;;;;5093237;28;20044;-53
2022/06/17 00:06:00;;;;;;;2.35;1.17;;;24.90;56.30;;;;;;5093287;28;20032;-55
2022/06/17 00:08:31;;;;;;;1.33;1.23;;;24.90;55.90;;;;;;5093259;28;20047;-53
2022/06/17 00:10:57;;;;;;;2.63;1.60;;;24.90;90.80;;;;;;5093266;28;20028;-52
2022/06/17 00:13:24;;;;;;;2.35;1.35;;;25.10;90.90;;;;;;5093139;28;20031;-54
2022/06/17 00:15:50;;;;;;;1.42;1.33;;;;;;;;;;5093066;28;20028;-52
2022/06/17 00:18:18;;;;;;;1.52;1.40;;;24.90;55.80;;;;;;5093061;28;20024;-55
2022/06/17 00:20:44;;;;;;;1.58;1.40;;;;;;;;;;5093004;28;20034;-50
2022/06/17 00:23:13;;;;;;;2.00;1.65;;;24.90;56.30;;;;;;5092959;28;20473;-48
2022/06/17 00:25:40;;;;;;;1.63;1.52;;;24.90;54.00;;;;;;5093011;28;20378;-47
2022/06/17 00:28:21;;;;;;;1.95;1.40;;;24.90;55.70;;;;;;5093160;28;20073;-48
2022/06/17 00:30:48;;;;;;;1.73;1.40;;;25.30;91.30;;;;;;5092917;28;20167;-48
2022/06/17 00:33:15;;;;;;;1.92;1.27;;;24.90;54.40;;;;;;5092778;28;20494;-48
2022/06/17 00:35:46;;;;;;;1.67;1.27;;;24.80;55.40;;;;;;5092738;28;20024;-48
2022/06/17 00:38:16;;;;;;;2.53;1.50;;;24.90;55.60;;;;;;5092823;28;20020;-49
2022/06/17 00:40:43;;;;;;;1.52;1.30;;;24.90;56.40;;;;;;5092738;28;20036;-53
2022/06/17 00:43:26;;;;;;;1.67;1.50;;;25.20;91.80;;;;;;5092646;28;20021;-54
2022/06/17 00:46:05;;;;;;;2.35;1.40;;;24.90;56.70;;;;;;5092640;28;20059;-52
2022/06/17 00:48:38;;;;;;;1.90;1.65;;;24.90;56.50;;;;;;5092853;28;20120;-50
2022/06/17 00:51:18;;;;;;;1.40;1.30;;;24.90;51.80;;;;;;5092476;28;20172;-51
2022/06/17 00:53:51;;;;;;;1.67;1.17;;;24.90;56.10;;;;;;5092524;28;20103;-51
2022/06/17 00:56:21;;;;;;;1.85;1.30;;;24.90;56.20;;;;;;5092428;28;20024;-53
2022/06/17 00:58:56;;;;;;;2.70;1.75;;;24.90;51.90;;;;;;5092558;28;20051;-53
2022/06/17 01:01:23;;;;;;;3.05;1.40;;;24.80;54.50;;;;;;5092243;28;20032;-51
2022/06/17 01:03:52;;;;;;;1.33;1.23;;;25.10;91.40;;;;;;5092253;28;20078;-54
2022/06/17 01:06:21;;;;;;;3.17;1.50;;;24.90;56.30;;;;;;5091787;28;20024;-52
2022/06/17 01:12:00;;;;;;;1.60;1.38;;;24.80;56.40;;;;;;5092322;28;20085;-53
2022/06/17 01:14:27;;;;;;;2.63;1.20;;;24.90;56.80;;;;;;5092189;28;20066;-54
2022/06/17 01:16:54;;;;;;;3.25;1.65;;;24.90;57.00;;;;;;5092328;28;20852;-51
2022/06/17 01:19:21;;;;;;;1.73;1.33;;;;;;;;;;5092225;28;20032;-51
2022/06/17 01:21:57;;;;;;;2.15;1.63;;;25.00;91.20;;;;;;5092354;28;20137;-53
2022/06/17 01:24:24;;;;;;;1.27;1.10;;;24.80;55.60;;;;;;5092400;28;20038;-54
2022/06/17 01:26:50;;;;;;;2.20;1.63;;;;;;;;;;5092139;28;20060;-50
2022/06/17 01:29:16;;;;;;;2.17;1.60;;;;;;;;;;5092097;28;20386;-54
2022/06/17 01:31:49;;;;;;;1.95;1.30;;;24.70;56.00;;;;;;5092063;28;20028;-53
2022/06/17 01:34:15;;;;;;;1.92;1.30;;;;;;;;;;5092003;28;20078;-54
2022/06/17 01:36:43;;;;;;;3.10;1.23;;;24.80;56.30;;;;;;5092161;28;20096;-53
2022/06/17 01:39:11;;;;;;;1.35;1.25;;;25.00;91.40;;;;;;5091997;28;20379;-51
2022/06/17 01:41:37;;;;;;;1.48;1.38;;;25.10;91.20;;;;;;5091870;28;20502;-54
2022/06/17 01:44:20;;;;;;;1.58;1.30;;;24.70;51.90;;;;;;5092006;28;20032;-53
2022/06/17 01:46:52;;;;;;;1.60;1.33;;;24.70;55.80;;;;;;5092004;28;20073;-53
2022/06/17 01:49:32;;;;;;;2.88;1.55;;;24.70;52.00;;;;;;5092174;28;20107;-54
2022/06/17 01:52:04;;;;;;;1.90;1.60;;;24.80;56.60;;;;;;5091971;28;20028;-54
2022/06/17 01:54:36;;;;;;;1.40;1.30;;;25.10;89.20;;;;;;5092195;28;20394;-53
2022/06/17 01:57:05;;;;;;;2.00;1.40;;;24.70;58.10;;;;;;5092109;28;20382;-54
2022/06/17 01:59:42;;;;;;;1.55;1.45;;;25.10;91.70;;;;;;5091777;28;20461;-54
2022/06/17 02:02:13;;;;;;;1.55;1.25;;;24.80;56.50;;;;;;5091426;28;20040;-54
2022/06/17 02:04:43;;;;;;;1.77;1.27;;;25.00;91.50;;;;;;5092082;28;20017;-52
2022/06/17 02:07:20;;;;;;;1.38;1.20;;;25.10;85.40;;;;;;5091738;28;20077;-52
2022/06/17 02:09:46;;;;;;;1.35;1.25;;;;;;;;;;5091764;28;20024;-53
2022/06/17 02:12:15;;;;;;;1.50;1.40;;;25.10;91.20;;;;;;5091694;28;20028;-55
2022/06/17 02:14:41;;;;;;;1.60;1.40;;;24.90;91.10;;;;;;5091930;28;20020;-53
2022/06/17 02:17:07;;;;;;;1.73;1.50;;;25.10;91.00;;;;;;5091636;28;20028;-54
2022/06/17 02:19:36;;;;;;;2.10;1.30;;;24.70;55.70;;;;;;5093738;28;20034;-54
2022/06/17 02:22:08;;;;;;;1.58;1.48;;;24.70;55.50;;;;;;5095294;28;20043;-52
2022/06/17 02:24:35;;;;;;;1.58;1.48;;;24.90;54.50;;;;;;5095624;28;20378;-52
2022/06/17 02:27:04;;;;;;;1.60;1.50;;;22.70;54.50;;;;;;5095304;28;20428;-54
2022/06/17 02:29:32;;;;;;;3.35;1.52;;;24.70;55.40;;;;;;5095017;28;20647;-54
2022/06/17 02:31:59;;;;;;;2.35;1.40;;;;;;;;;;5095266;28;20032;-54
2022/06/17 02:34:26;;;;;;;1.98;1.40;;;25.00;91.10;;;;;;5095084;28;20027;-53
2022/06/17 02:37:01;;;;;;;1.45;1.30;;;25.20;91.00;;;;;;5095125;28;20523;-52
2022/06/17 02:39:27;;;;;;;1.45;1.35;;;25.00;91.00;;;;;;5095032;28;20107;-53
2022/06/17 02:41:53;;;;;;;2.35;1.65;;;;;;;;;;5094881;28;20042;-54
2022/06/17 02:44:28;;;;;;;1.92;1.60;;;24.70;90.90;;;;;;5094905;28;20028;-51
2022/06/17 02:46:55;;;;;;;1.77;1.38;;;24.70;55.30;;;;;;5094929;28;20027;-52
2022/06/17 02:49:33;;;;;;;2.03;1.23;;;25.00;91.00;;;;;;5095168;28;20039;-50
2022/06/17 02:52:06;;;;;;;1.77;1.67;;;24.80;91.00;;;;;;5094892;28;20059;-50
2022/06/17 02:54:41;;;;;;;1.55;1.45;;;24.60;68.60;;;;;;5094975;28;20028;-48
2022/06/17 02:57:09;;;;;;;2.47;1.48;;;24.90;91.10;;;;;;5094757;28;20069;-49
2022/06/17 02:59:48;;;;;;;2.10;1.40;;;24.60;90.90;;;;;;5094609;28;20580;-49
2022/06/17 03:02:29;;;;;;;1.58;1.42;;;24.80;67.10;;;;;;5094309;28;20044;-49
2022/06/17 03:04:55;;;;;;;1.40;1.30;;;25.00;90.90;;;;;;5094578;28;20467;-50
2022/06/17 03:07:25;;;;;;;1.52;1.15;;;24.90;90.90;;;;;;5094648;28;20024;-49
2022/06/17 03:09:51;;;;;;;1.60;1.50;;;;;;;;;;5094899;28;20054;-47
2022/06/17 03:12:21;;;;;;;1.50;1.40;;;24.80;91.00;;;;;;5094457;28;20059;-50
2022/06/17 03:14:52;;;;;;;2.08;1.38;;;24.80;91.20;;;;;;5094917;28;20054;-49
2022/06/17 03:17:23;;;;;;;1.85;1.65;;;24.70;55.90;;;;;;5094359;28;20089;-49
2022/06/17 03:19:49;;;;;;;2.35;1.52;;;24.90;91.20;;;;;;5094265;28;20501;-48
2022/06/17 03:22:15;;;;;;;1.33;1.23;;;;;;;;;;5094185;28;20025;-50
2022/06/17 03:24:48;;;;;;;1.55;1.45;;;24.90;91.60;;;;;;5094172;28;20024;-49
2022/06/17 03:27:34;;;;;;;2.90;1.85;;;24.20;88.50;;;;;;5094243;28;20424;-51
2022/06/17 03:30:02;;;;;;;1.83;1.67;;;24.50;56.20;;;;;;5093353;28;20043;-51
2022/06/17 03:32:35;;;;;;;1.45;1.35;;;24.70;51.90;;;;;;5093019;28;20035;-54
2022/06/17 03:35:01;;;;;;;1.42;1.33;;;;;;;;;;5092362;28;20051;-53
2022/06/17 03:37:56;;;;;;;1.65;1.55;;;24.70;63.20;;;;;;5094121;28;20378;-51
2022/06/17 03:40:36;;;;;;;1.40;1.30;;;24.50;56.80;;;;;;5093864;28;20024;-51
2022/06/17 03:43:23;;;;;;;1.67;1.30;;;24.60;91.80;;;;;;5093565;28;20059;-51
2022/06/17 03:46:05;;;;;;;1.63;1.40;;;25.10;91.60;;;;;;5093688;28;20082;-50
2022/06/17 03:48:38;;;;;;;1.90;1.40;;;25.00;91.20;;;;;;5093977;28;20072;-54
2022/06/17 03:51:04;;;;;;;1.95;1.52;;;;;;;;;;5093606;28;20387;-54
2022/06/17 03:53:33;;;;;;;1.45;1.35;;;24.70;56.00;;;;;;5093565;28;20031;-53
2022/06/17 03:56:05;;;;;;;2.38;1.77;;;24.20;90.70;;;;;;5093461;28;20062;-55
2022/06/17 03:58:33;;;;;;;1.70;1.52;;;24.90;90.80;;;;;;5093517;28;20032;-54
2022/06/17 04:01:12;;;;;;;1.50;1.40;;;24.50;90.60;;;;;;5093327;28;20039;-54
2022/06/17 04:03:42;;;;;;;2.85;1.25;;;25.20;67.00;;;;;;5093195;28;20403;-54
2022/06/17 04:06:12;;;;;;;1.50;1.40;;;24.70;55.90;;;;;;5093366;28;20028;-54
2022/06/17 04:08:54;;;;;;;1.58;1.48;;;24.70;51.70;;;;;;5093648;28;20401;-54
2022/06/17 04:11:21;;;;;;;1.45;1.30;;;24.70;55.50;;;;;;5093199;28;20486;-51
2022/06/17 04:13:48;;;;;;;2.40;1.80;;;25.10;91.20;;;;;;5093170;28;20077;-54
2022/06/17 04:16:53;;;;;;;1.95;1.55;;;24.70;51.60;;;;;;5093053;28;20103;-53
2022/06/17 04:19:25;;;;;;;1.65;1.50;;;24.90;84.30;;;;;;5093762;28;20032;-54
2022/06/17 04:21:51;;;;;;;2.13;1.48;;;24.60;55.90;;;;;;5093313;28;20035;-48
2022/06/17 04:24:24;;;;;;;1.60;1.50;;;24.90;52.30;;;;;;5092938;28;20020;-48
2022/06/17 04:26:54;;;;;;;1.65;1.55;;;24.70;56.50;;;;;;5092921;28;20528;-47
2022/06/17 04:29:28;;;;;;;1.90;1.70;;;24.70;56.70;;;;;;5092949;28;20024;-48
2022/06/17 04:32:10;;;;;;;3.33;1.55;;;24.70;55.80;;;;;;5092842;28;20036;-50
2022/06/17 04:34:36;;;;;;;2.17;1.48;;;;;;;;;;5092806;28;20045;-49
2022/06/17 04:37:06;;;;;;;1.40;1.30;;;24.60;55.30;;;;;;5092964;28;20082;-49
2022/06/17 04:39:57;;;;;;;3.05;1.50;;;26.50;52.90;;;;;;5074662;28;20585;-50
2022/06/17 04:42:29;;;;;;;2.55;1.63;;;24.70;51.60;;;;;;5091944;28;20399;-49
2022/06/17 04:44:55;;;;;;;1.67;1.55;;;24.30;90.80;;;;;;5092553;28;20020;-50
2022/06/17 04:47:21;;;;;;;1.92;1.33;;;24.60;90.50;;;;;;5092585;28;20050;-51
2022/06/17 04:49:54;;;;;;;3.10;1.58;;;25.10;90.60;;;;;;5092765;28;20016;-48
2022/06/17 04:52:34;;;;;;;2.67;1.88;;;24.70;90.60;;;;;;5092556;28;20030;-52
2022/06/17 04:55:02;;;;;;;2.25;1.58;;;24.30;55.60;;;;;;5092716;28;20024;-49
2022/06/17 04:57:29;;;;;;;1.92;1.73;;;24.40;54.40;;;;;;5092475;28;20086;-54
2022/06/17 04:59:58;;;;;;;1.73;1.58;;;24.50;90.70;;;;;;5092790;28;20051;-54
2022/06/17 05:02:30;;;;;;;1.50;1.40;;;24.70;55.40;;;;;;5091990;28;20044;-53
2022/06/17 05:05:05;;;;;;;2.08;1.58;;;25.00;91.10;;;;;;5092387;28;20035;-54
2022/06/17 05:07:41;;;;;;;1.40;1.30;;;24.50;90.70;;;;;;5092635;28;20024;-51
2022/06/17 05:10:14;;;;;;;1.80;1.70;;;24.50;90.60;;;;;;5092283;28;20428;-52
2022/06/17 05:12:40;;;;;;;1.33;1.23;;;;;;;;;;5092388;28;20107;-53
2022/06/17 05:15:12;;;;;;;1.58;1.30;;;25.00;74.90;;;;;;5092161;28;20058;-51
2022/06/17 05:17:38;;;;;;;1.70;1.60;;;;;;;;;;5092545;28;20035;-51
2022/06/17 05:20:06;;;;;;;1.65;1.48;;;24.90;90.00;;;;;;5092122;28;20032;-52
2022/06/17 05:22:37;;;;;;;1.95;1.70;;;24.60;54.70;;;;;;5091920;28;20039;-52
2022/06/17 05:25:10;;;;;;;1.60;1.50;;;25.00;90.20;;;;;;5092304;28;20035;-54
2022/06/17 05:27:36;;;;;;;1.60;1.50;;;;;;;;;;5092081;28;20020;-53
2022/06/17 05:30:02;;;;;;;2.17;1.92;;;;;;;;;;5092036;28;20063;-53
2022/06/17 05:32:28;;;;;;;1.70;1.60;;;;;;;;;;5092002;28;20035;-52
2022/06/17 05:34:54;;;;;;;1.85;1.55;;;;;;;;;;5092277;28;20031;-48
2022/06/17 05:37:20;;;;;;;2.90;1.60;;;;;;;;;;5092162;28;20027;-49
2022/06/17 05:39:46;;;;;;;4.75;1.50;;;;;;;;;;5092329;28;20104;-49
2022/06/17 05:42:12;;;;;;;1.77;1.60;;;;;;;;;;5092025;28;20032;-48
2022/06/17 05:44:38;;;;;;;6.07;1.65;;;;;;;;;;5092265;28;20024;-49
2022/06/17 05:47:05;;;;;;;1.55;1.40;;;24.40;89.70;;;;;;5092075;28;20077;-48
2022/06/17 05:49:30;;;;;;;1.83;1.55;;;25.00;91.30;;;;;;5092089;28;20461;-48
2022/06/17 05:51:58;;;;;;;1.50;1.40;;;;;;;;;;5091957;28;20029;-48
2022/06/17 05:54:24;;;;;;;2.25;1.55;;;;;;;;;;5095933;28;20038;-48
2022/06/17 05:56:50;;;;;;;1.92;1.60;;;;;;;;;;5095674;28;20028;-49
2022/06/17 05:59:17;;;;;;;1.95;1.60;;;24.20;90.90;;;;;;5095775;28;20085;-51
2022/06/17 06:01:44;;;;;;;2.55;1.77;;;24.70;53.40;;;;;;5095781;28;20036;-49
2022/06/17 06:04:10;;;;;;;2.30;1.63;;;24.70;53.60;;;;;;5095502;28;20044;-51
2022/06/17 06:06:36;;;;;;;2.58;1.80;;;;;;;;;;5095599;28;20028;-49
2022/06/17 06:09:02;;;;;;;2.80;1.27;;;24.70;54.80;;;;;;5095283;28;20495;-49
2022/06/17 06:11:28;;;;;;;2.65;1.77;;;25.10;68.00;;;;;;5095464;28;20024;-49
2022/06/17 06:13:54;;;;;;;2.75;1.60;;;;;;;;;;5095835;28;20022;-48
2022/06/17 06:16:20;;;;;;;1.80;1.13;;;;;;;;;;5095368;28;20418;-49
2022/06/17 06:18:47;;;;;;;2.25;1.67;;;;;;;;;;5095355;28;20024;-49
2022/06/17 06:21:13;;;;;;;4.50;1.50;;;24.90;91.80;;;;;;5095199;28;20028;-51
2022/06/17 06:23:41;;;;;;;3.38;1.70;;;25.00;91.80;;;;;;5095302;28;20035;-49
2022/06/17 06:26:08;;;;;;;4.03;1.70;;;24.70;55.40;;;;;;5095456;28;20044;-49
2022/06/17 06:28:34;;;;;;;1.65;1.50;;;24.90;91.50;;;;;;5095485;28;20048;-48
2022/06/17 06:31:00;;;;;;;4.13;1.60;;;;;;;;;;5095367;28;20056;-51
2022/06/17 06:33:26;;;;;;;4.10;1.60;;;;;;;;;;5095057;28;20024;-52
2022/06/17 06:35:52;;;;;;;1.70;1.52;;;;;;;;;;5095036;28;20039;-52
2022/06/17 06:38:18;;;;;;;3.97;1.35;;;24.60;56.40;;;;;;5094925;28;20035;-51
2022/06/17 06:40:44;;;;;;;2.42;1.65;;;;;;;;;;5095168;28;20024;-51
2022/06/17 06:43:16;;;;;;;2.45;1.67;;;25.00;56.50;;;;;;5095222;28;20028;-53
2022/06/17 06:45:44;;;;;;;2.20;1.50;;;25.10;91.30;;;;;;5095134;28;20023;-54
2022/06/17 06:48:12;;;;;;;3.83;1.92;;;24.80;56.10;;;;;;5095117;28;20024;-50
2022/06/17 06:50:39;;;;;;;4.70;1.80;;;24.60;55.00;;;;;;5094999;28;20016;-49
2022/06/17 06:53:05;;;;;;;5.35;1.60;;;25.30;91.10;;;;;;5095102;28;20081;-49
2022/06/17 06:55:31;;;;;;;4.05;1.55;;;25.10;91.10;;;;;;5094859;28;20020;-49
2022/06/17 06:57:59;;;;;;;3.75;1.55;;;24.60;91.10;;;;;;5094816;28;20040;-48
2022/06/17 07:00:37;;;;;;;2.65;1.90;;;24.70;52.40;;;;;;5094528;28;20500;-48
2022/06/17 07:03:03;;;;;;;3.17;1.63;;;25.00;91.70;;;;;;5094351;28;20040;-48
2022/06/17 07:05:29;;;;;;;4.28;1.88;;;24.90;91.60;;;;;;5093854;28;20425;-48
2022/06/17 07:07:56;;;;;;;1.95;1.60;;;24.30;91.70;;;;;;5094746;28;20386;-52
2022/06/17 07:10:26;;;;;;;2.88;1.70;;;24.70;56.80;;;;;;5094397;28;20027;-50
2022/06/17 07:12:53;;;;;;;4.13;2.00;;;24.70;56.40;;;;;;5094507;28;20037;-48
2022/06/17 07:15:19;;;;;;;4.35;1.70;;;;;;;;;;5094512;28;20051;-49
2022/06/17 07:17:54;;;;;;;2.28;1.40;;;24.90;91.30;;;;;;5094361;28;20437;-49
2022/06/17 07:20:20;;;;;;;3.05;1.55;;;;;;;;;;5094417;28;20059;-48
2022/06/17 07:22:46;;;;;;;1.92;1.58;;;;;;;;;;5094299;28;20071;-50
2022/06/17 07:25:13;;;;;;;4.85;2.00;;;;;;;;;;5094353;28;20395;-49
2022/06/17 07:27:38;;;;;;;1.90;1.50;;;24.70;90.60;;;;;;5094215;28;20036;-49
2022/06/17 07:30:04;;;;;;;4.15;1.88;;;24.60;55.00;;;;;;5094202;28;20382;-49
2022/06/17 07:32:30;;;;;;;3.20;1.70;;;24.90;85.40;;;;;;5093992;28;20024;-49
2022/06/17 07:34:56;;;;;;;4.50;1.58;;;;;;;;;;5093983;28;20466;-48
2022/06/17 07:40:07;;;;;;;1.92;1.60;;;24.80;90.30;;;;;;5094073;28;20039;-48
2022/06/17 07:42:38;;;;;;;2.97;1.73;;;24.50;90.00;;;;;;5093825;28;20126;-51
2022/06/17 07:45:07;;;;;;;4.25;2.22;;;24.50;78.40;;;;;;5094005;28;20532;-54
2022/06/17 07:47:33;;;;;;;3.67;1.70;;;24.20;88.90;;;;;;5093885;28;20028;-50
2022/06/17 07:49:58;;;;;;;2.45;1.85;;;24.80;89.30;;;;;;5093798;28;20024;-53
2022/06/17 07:52:25;;;;;;;2.65;1.92;;;;;;;;;;5093753;28;20024;-52
2022/06/17 07:54:50;;;;;;;3.55;1.70;;;25.00;89.30;;;;;;5093694;28;20069;-52
2022/06/17 07:57:16;;;;;;;2.65;1.73;;;24.80;86.20;;;;;;5094194;28;20427;-51
2022/06/17 07:59:42;;;;;;;3.15;2.22;;;24.70;62.10;;;;;;5093904;28;20035;-51
2022/06/17 08:02:08;;;;;;;4.45;1.75;;;;;;;;;;5093335;28;20036;-52
2022/06/17 08:04:35;;;;;;;5.25;1.90;;;;;;;;;;5093584;28;20032;-52
2022/06/17 08:07:01;;;;;;;1.67;1.48;;;24.80;89.40;;;;;;5093462;28;20025;-50
2022/06/17 08:09:28;;;;;;;2.50;1.63;;;24.80;89.60;;;;;;5093515;28;20028;-51
2022/06/17 08:11:54;;;;;;;3.10;2.08;;;24.90;68.60;;;;;;5093374;28;20028;-52
2022/06/17 08:14:20;;;;;;;3.38;1.90;;;;;;;;;;5093668;28;20031;-52
2022/06/17 08:16:46;;;;;;;3.15;1.70;;;;;;;;;;5093225;28;20020;-51
2022/06/17 08:19:13;;;;;;;3.00;1.60;;;;;;;;;;5093556;28;20028;-53
2022/06/17 08:21:39;;;;;;;3.63;1.90;;;;;;;;;;5093481;28;20032;-48
2022/06/17 08:24:05;;;;;;;5.25;1.83;;;25.00;90.00;;;;;;5093238;28;20111;-49
2022/06/17 08:26:30;;;;;;;3.15;1.83;;;24.80;90.00;;;;;;5093173;28;20055;-48
2022/06/17 08:28:56;;;;;;;4.10;1.70;;;;;;;;;;5092991;28;20024;-49
2022/06/17 08:31:24;;;;;;;2.88;1.92;;;;;;;;;;5092858;28;20032;-48
2022/06/17 08:33:50;;;;;;;2.13;1.63;;;;;;;;;;5093113;28;20028;-48
2022/06/17 08:36:20;;;;;;;5.05;2.15;;;24.80;89.60;;;;;;5092915;28;20083;-48
2022/06/17 08:38:50;;;;;;;2.72;1.88;;;25.10;53.70;;;;;;5093036;28;20073;-53
2022/06/17 08:41:28;;;;;;;3.10;1.70;;;25.00;50.60;;;;;;5092843;28;20032;-53
2022/06/17 08:43:54;;;;;;;1.98;1.50;;;;;;;;;;5092610;28;20452;-50
2022/06/17 08:46:59;;;;;;;1.38;1.27;;;25.00;50.50;;;;;;5092613;28;20491;-51
2022/06/17 08:49:43;;;;;;;2.83;1.58;;;25.00;50.40;;;;;;5092897;28;20103;-52
2022/06/17 08:52:09;;;;;;;4.40;1.88;;;;;;;;;;5092529;28;20024;-53
2022/06/17 08:54:56;;;;;;;2.17;1.42;;;25.10;89.70;;;;;;5092524;28;20028;-50
2022/06/17 08:57:36;;;;;;;2.95;1.50;;;25.30;89.70;;;;;;5092819;28;20390;-53
2022/06/17 09:00:07;;;;;;;2.88;1.30;;;25.20;50.20;;;;;;5092418;28;20031;-51
2022/06/17 09:03:01;;;;;;;1.83;1.50;;;24.90;88.90;;;;;;5092060;28;20055;-51
2022/06/17 09:06:04;;;;;;;2.42;1.40;;;25.30;89.20;;;;;;5092409;28;20107;-51
2022/06/17 09:08:45;;;;;;;2.47;1.63;;;25.10;69.40;;;;;;5092588;28;20405;-50
2022/06/17 09:11:31;;;;;;;2.13;1.60;;;25.60;89.20;;;;;;5092582;28;20108;-53
2022/06/17 09:14:14;;;;;;;3.20;1.38;;;24.90;89.00;;;;;;5092247;28;20035;-50
2022/06/17 09:16:54;;;;;;;3.20;1.60;;;25.50;89.40;;;;;;5092319;28;20032;-51
2022/06/17 09:19:27;;;;;;;4.32;1.60;;;25.40;52.70;;;;;;5092094;28;20036;-53
2022/06/17 09:21:56;;;;;;;4.90;1.52;;;25.50;52.70;;;;;;5092211;28;20035;-52
2022/06/17 09:24:38;;;;;;;7.20;1.40;;;25.40;52.80;;;;;;5092300;28;20023;-52
2022/06/17 09:27:07;;;;;;;2.40;1.67;;;25.60;89.10;;;;;;5092954;28;20439;-52
2022/06/17 09:29:42;;;;;;;1.73;1.40;;;25.80;89.00;;;;;;5098984;28;20387;-53
2022/06/17 09:32:31;;;;;;;2.42;1.40;;;25.60;49.10;;;;;;5098985;28;20028;-53
2022/06/17 09:35:36;;;;;;;2.35;1.52;;;26.00;73.50;;;;;;5098996;28;20031;-52
2022/06/17 09:38:12;;;;;;;3.78;1.48;;;25.70;49.10;;;;;;5099156;28;20052;-53
2022/06/17 09:40:56;;;;;;;1.65;1.38;;;25.80;69.60;;;;;;5099114;28;20376;-51
2022/06/17 09:43:44;;;;;;;1.98;1.52;;;25.70;49.10;;;;;;5099047;28;20375;-53
2022/06/17 09:46:20;;;;;;;4.05;1.25;;;25.40;87.70;;;;;;5098834;28;20020;-54
2022/06/17 09:48:52;;;;;;;4.85;1.63;;;25.60;78.60;;;;;;5098785;28;20027;-53
2022/06/17 09:51:28;;;;;;;2.63;1.40;;;25.80;49.20;;;;;;5099028;28;20028;-50
2022/06/17 09:54:06;;;;;;;6.03;1.48;;;25.80;52.10;;;;;;5099130;28;20047;-49
2022/06/17 09:56:45;;;;;;;2.13;1.50;;;25.70;52.00;;;;;;5098691;28;20488;-49
2022/06/17 09:59:12;;;;;;;1.20;1.05;;;25.80;87.60;;;;;;5098597;28;20028;-50
2022/06/17 10:01:40;;;;;;;2.40;1.60;;;25.60;78.50;;;;;;5098323;28;20039;-51
2022/06/17 10:04:12;;;;;;;1.77;1.35;;;25.80;51.80;;;;;;5098174;28;20055;-51
2022/06/17 10:07:07;;;;;;;3.55;1.20;;;25.40;87.20;;;;;;5098412;28;20024;-52
2022/06/17 10:10:02;;;;;;;3.08;1.63;;;26.10;87.70;;;;;;5098712;28;20368;-50
2022/06/17 10:12:34;;;;;;;1.83;1.48;;;26.00;49.00;;;;;;5098584;28;20031;-50
2022/06/17 10:15:00;;;;;;;1.48;1.30;;;;;;;;;;5098431;28;20399;-51
2022/06/17 10:20:51;;;;;;;1.90;1.17;;;26.30;75.40;;;;;;5098655;28;20043;-50
2022/06/17 10:23:40;;;;;;;1.73;1.60;;;26.10;48.90;;;;;;5098299;28;20490;-49
2022/06/17 10:26:20;;;;;;;4.93;1.27;;;26.70;54.70;;;;;;5098616;28;20053;-51
2022/06/17 10:29:25;;;;;;;5.10;1.20;;;26.50;56.90;;;;;;5098380;28;20024;-49
2022/06/17 10:31:51;;;;;;;1.65;1.45;;;25.70;86.50;;;;;;5093995;28;20048;-48
2022/06/17 10:34:27;;;;;;;3.15;1.30;;;26.20;48.80;;;;;;5098919;28;20121;-48
2022/06/17 10:36:56;;;;;;;5.15;1.85;;;26.50;67.10;;;;;;5098435;28;20103;-50
2022/06/17 10:39:25;;;;;;;2.45;1.30;;;26.60;87.20;;;;;;5095671;28;20066;-49
2022/06/17 10:41:51;;;;;;;2.67;1.30;;;26.30;87.10;;;;;;5095180;28;20494;-49
2022/06/17 10:44:23;;;;;;;5.05;1.50;;;26.60;86.90;;;;;;5095133;28;20532;-49
2022/06/17 10:47:36;;;;;;;2.72;1.25;;;26.30;86.40;;;;;;5095135;28;20024;-51
2022/06/17 10:50:20;;;;;;;3.53;1.30;;;26.40;48.70;;;;;;5086156;28;20040;-51
2022/06/17 10:52:53;;;;;;;7.05;1.73;;;26.40;51.10;;;;;;5095235;28;20063;-51
2022/06/17 10:55:29;;;;;;;3.67;1.50;;;26.40;87.00;;;;;;5095220;28;20012;-54
2022/06/17 10:58:16;;;;;;;4.85;1.42;;;26.40;86.80;;;;;;5095197;28;20069;-52
2022/06/17 11:01:07;;;;;;;3.38;1.48;;;26.70;51.10;;;;;;5095024;28;20027;-50
2022/06/17 11:03:35;;;;;;;1.38;1.17;;;27.00;87.60;;;;;;5094506;28;20051;-49
2022/06/17 11:06:03;;;;;;;4.35;1.40;;;26.30;87.10;;;;;;5094823;28;20024;-50
2022/06/17 11:08:40;;;;;;;3.42;1.60;;;26.20;87.20;;;;;;5094700;28;20028;-48
2022/06/17 11:13:56;;;;;;;4.82;1.30;;;26.60;49.80;;;;;;5094867;28;20085;-49
2022/06/17 11:16:25;;;;;;;3.58;1.30;;;26.60;51.50;;;;;;5094227;28;20103;-48
2022/06/17 11:18:59;;;;;;;5.07;1.30;;;27.00;87.70;;;;;;5094567;28;20024;-48
2022/06/17 11:21:30;;;;;;;4.07;1.40;;;26.50;87.00;;;;;;5093157;28;20119;-51
2022/06/17 11:23:58;;;;;;;2.45;1.25;;;26.70;50.90;;;;;;5092985;28;20522;-49
2022/06/17 11:26:30;;;;;;;2.08;1.17;;;26.70;50.70;;;;;;5092776;28;20390;-50
2022/06/17 11:29:03;;;;;;;1.58;1.20;;;26.80;51.00;;;;;;5094237;28;20049;-51
2022/06/17 11:31:28;;;;;;;1.35;1.25;;;;;;;;;;5094098;28;20036;-52
2022/06/17 11:33:54;;;;;;;1.85;1.50;;;26.70;75.60;;;;;;5094071;28;20466;-49
2022/06/17 11:36:36;;;;;;;2.00;1.30;;;26.70;48.00;;;;;;5094101;28;20482;-48
2022/06/17 11:39:27;;;;;;;4.07;1.50;;;26.50;86.40;;;;;;5094050;28;20043;-49
2022/06/17 11:41:53;;;;;;;2.00;1.20;;;27.00;86.40;;;;;;5094240;28;20520;-50
2022/06/17 11:44:20;;;;;;;1.45;1.10;;;26.70;86.00;;;;;;5094118;28;20024;-50
2022/06/17 11:46:59;;;;;;;2.78;1.35;;;26.60;57.80;;;;;;5093849;28;20039;-50
2022/06/17 11:49:25;;;;;;;3.47;1.42;;;27.10;86.50;;;;;;5093805;28;20062;-51
2022/06/17 11:52:00;;;;;;;4.03;1.20;;;26.90;50.70;;;;;;5093604;28;20047;-52
2022/06/17 11:54:32;;;;;;;1.85;1.13;;;26.90;50.50;;;;;;5093741;28;20132;-52
2022/06/17 11:56:59;;;;;;;1.80;1.17;;;27.00;86.90;;;;;;5093645;28;20471;-49
2022/06/17 11:59:31;;;;;;;2.47;1.42;;;26.60;86.50;;;;;;5094246;28;20355;-52
2022/06/17 12:01:56;;;;;;;1.35;1.05;;;27.20;87.50;;;;;;5093365;28;20090;-49
2022/06/17 12:04:40;;;;;;;2.08;1.00;;;27.00;54.10;;;;;;5093613;28;20032;-48
2022/06/17 12:07:39;;;;;;;1.38;1.27;;;26.80;68.30;;;;;;5093541;28;20103;-49
2022/06/17 12:10:38;;;;;;;2.90;0.88;;;26.80;87.20;;;;;;5075303;28;20501;-48
2022/06/17 12:13:11;;;;;;;2.55;1.35;;;27.00;50.90;;;;;;5093419;28;20031;-48
2022/06/17 12:15:47;;;;;;;1.98;1.15;;;27.20;87.00;;;;;;5093354;28;20475;-48
2022/06/17 12:18:20;;;;;;;3.85;1.25;;;27.00;50.90;;;;;;5093343;28;20028;-50
2022/06/17 12:20:53;;;;;;;1.67;1.20;;;27.00;60.60;;;;;;5093050;28;20145;-48
2022/06/17 12:23:34;;;;;;;1.23;0.93;;;27.60;87.50;;;;;;5093314;28;20394;-49
2022/06/17 12:26:05;;;;;;;1.27;1.00;;;27.40;87.20;;;;;;5093173;28;20031;-49
2022/06/17 12:28:53;;;;;;;1.15;1.05;;;27.00;86.80;;;;;;5093436;28;20101;-48
2022/06/17 12:31:48;;;;;;;1.33;0.98;;;26.60;87.10;;;;;;5093069;28;20024;-48
2022/06/17 12:34:34;;;;;;;1.23;0.95;;;27.10;51.20;;;;;;5093089;28;20031;-49
2022/06/17 12:37:10;;;;;;;2.33;1.13;;;27.40;87.60;;;;;;5093033;28;20028;-48
2022/06/17 12:39:55;;;;;;;3.40;1.10;;;27.10;51.30;;;;;;5092967;28;20099;-47
2022/06/17 12:42:24;;;;;;;1.00;0.90;;;27.40;87.60;;;;;;5092832;28;20039;-49
2022/06/17 12:45:16;;;;;;;1.85;0.85;;;27.30;87.80;;;;;;5093070;28;20032;-46
2022/06/17 12:48:03;;;;;;;2.80;1.25;;;27.20;49.00;;;;;;5093038;28;20016;-48
2022/06/17 12:53:54;;;;;;;5.65;1.27;;;27.70;90.20;;;;;;5093336;28;20031;-46
2022/06/17 12:56:48;;;;;;;1.58;1.17;;;27.30;63.40;;;;;;5092828;28;20028;-46
2022/06/17 12:59:28;;;;;;;2.08;1.10;;;27.50;49.60;;;;;;5092617;28;20032;-47
2022/06/17 13:01:54;;;;;;;3.22;0.93;;;;;;;;;;5092053;28;20043;-48
2022/06/17 13:04:40;;;;;;;2.72;1.00;;;28.10;50.30;;;;;;5092321;28;20398;-47
2022/06/17 13:07:10;;;;;;;1.67;1.25;;;27.50;89.80;;;;;;5092534;28;20486;-47
2022/06/17 13:09:57;;;;;;;1.70;1.15;;;26.00;48.70;;;;;;5092545;28;20024;-47
2022/06/17 13:12:33;;;;;;;3.17;1.40;;;27.80;53.10;;;;;;5092420;28;20059;-47
2022/06/17 13:15:05;;;;;;;2.90;1.20;;;27.40;89.40;;;;;;5092855;28;20027;-55
2022/06/17 13:17:57;;;;;;;0.95;0.80;;;27.80;65.50;;;;;;5094061;28;20390;-55
2022/06/17 13:20:33;;;;;;;0.93;0.82;;;28.30;84.70;;;;;;5093135;28;20111;-55
2022/06/17 13:23:22;;;;;;;3.67;1.17;;;27.80;89.70;;;;;;5093172;28;20074;-56
2022/06/17 13:25:50;;;;;;;1.30;1.20;;;28.50;90.00;;;;;;5093248;28;20383;-53
2022/06/17 13:28:16;;;;;;;3.95;0.88;;;;;;;;;;5093758;28;20024;-55
2022/06/17 13:30:53;;;;;;;1.10;1.00;;;28.10;50.00;;;;;;5093667;28;20489;-56
2022/06/17 13:33:34;;;;;;;2.63;0.85;;;28.50;89.50;;;;;;5092733;28;20085;-56
2022/06/17 13:36:16;;;;;;;4.25;0.93;;;28.10;49.80;;;;;;5092778;28;20032;-56
2022/06/17 13:38:43;;;;;;;1.08;0.70;;;;;;;;;;5094287;28;20028;-56
2022/06/17 13:41:15;;;;;;;1.10;0.93;;;27.80;89.80;;;;;;5093030;28;20024;-54
2022/06/17 13:44:06;;;;;;;1.10;0.85;;;28.40;89.30;;;;;;5092865;28;20036;-54
2022/06/17 13:46:45;;;;;;;0.98;0.88;;;28.10;89.20;;;;;;5094005;28;20062;-55
2022/06/17 13:49:35;;;;;;;1.42;0.90;;;28.30;88.60;;;;;;5092750;28;20028;-55